Time;durP1;ratioP1;P1;durP2;ratioP2;P2;SDS_P1;SDS_P2;PMS_P1;PMS_P2;Temp;Humidity;BMP_temperature;BMP_pressure;BME280_temperature;BME280_humidity;BME280_pressure;Samples;Min_cycle;Max_cycle;Signal;HPM_P1;HPM_P2
2021/01/02 00:00:10;;;;;;;25.00;14.65;;;0.30;98.00;;;;;;5028611;28;20029;-68
2021/01/02 00:02:41;;;;;;;21.23;14.95;;;0.30;98.00;;;;;;5030654;28;20093;-68
2021/01/02 00:05:11;;;;;;;22.25;14.50;;;0.30;98.00;;;;;;5033189;28;20025;-68
2021/01/02 00:07:56;;;;;;;19.77;12.35;;;0.30;98.00;;;;;;5029746;28;20044;-68
2021/01/02 00:10:48;;;;;;;22.73;15.52;;;0.30;98.00;;;;;;5026562;28;20747;-68
2021/01/02 00:13:14;;;;;;;24.88;16.40;;;0.30;98.00;;;;;;5031928;28;20040;-68
2021/01/02 00:15:57;;;;;;;31.35;19.13;;;0.30;98.00;;;;;;5035707;28;20021;-68
2021/01/02 00:18:35;;;;;;;25.27;16.75;;;0.30;98.00;;;;;;5036027;28;20330;-68
2021/01/02 00:21:24;;;;;;;27.13;16.20;;;0.30;98.00;;;;;;5022450;28;20040;-68
2021/01/02 00:24:30;;;;;;;26.17;18.55;;;0.30;98.00;;;;;;5034676;28;20083;-68
2021/01/02 00:27:07;;;;;;;29.02;19.08;;;0.30;98.00;;;;;;5032837;28;20114;-68
2021/01/02 00:29:59;;;;;;;27.88;17.33;;;0.30;98.00;;;;;;5032123;28;20414;-68
2021/01/02 00:32:48;;;;;;;31.92;19.02;;;0.20;98.00;;;;;;5029921;28;20056;-68
2021/01/02 00:35:15;;;;;;;30.73;19.77;;;0.20;98.00;;;;;;5035499;28;20022;-69
2021/01/02 00:37:42;;;;;;;32.15;20.98;;;0.20;98.00;;;;;;5025463;28;20021;-68
2021/01/02 00:40:28;;;;;;;29.13;19.63;;;0.20;98.00;;;;;;5034096;28;20096;-68
2021/01/02 00:42:54;;;;;;;32.85;21.15;;;0.20;98.00;;;;;;5028851;28;20022;-67
2021/01/02 00:45:25;;;;;;;36.53;23.30;;;0.20;98.00;;;;;;5024824;28;20030;-68
2021/01/02 00:47:53;;;;;;;35.90;23.48;;;0.20;98.00;;;;;;5035359;28;20029;-69
2021/01/02 00:50:20;;;;;;;38.70;24.80;;;0.10;98.00;;;;;;5021936;28;20471;-68
2021/01/02 00:52:46;;;;;;;37.60;24.30;;;0.10;98.00;;;;;;5033976;28;20100;-68
2021/01/02 00:55:14;;;;;;;33.97;22.77;;;0.00;98.00;;;;;;5029476;28;20395;-68
2021/01/02 00:57:48;;;;;;;44.08;25.40;;;0.00;98.00;;;;;;5035200;28;20028;-67
2021/01/02 01:00:17;;;;;;;36.75;23.48;;;0.00;98.00;;;;;;5035633;28;20057;-68
2021/01/02 01:02:54;;;;;;;42.17;24.98;;;0.00;98.00;;;;;;5033929;28;21821;-68
2021/01/02 01:05:21;;;;;;;37.15;23.95;;;-0.10;98.00;;;;;;5034579;28;20430;-67
2021/01/02 01:07:55;;;;;;;34.75;24.17;;;-0.10;98.00;;;;;;5035202;28;20025;-67
2021/01/02 01:10:25;;;;;;;;;;;-0.10;98.00;;;;;;5033970;28;20352;-68
2021/01/02 01:12:58;;;;;;;41.25;24.45;;;-0.20;98.00;;;;;;5033460;28;19952;-68
2021/01/02 01:15:24;;;;;;;37.00;23.60;;;-0.10;98.00;;;;;;5034293;28;20022;-68
2021/01/02 01:18:14;;;;;;;38.70;24.65;;;-0.20;98.00;;;;;;5034127;28;20026;-68
2021/01/02 01:20:45;;;;;;;42.50;25.48;;;-0.20;98.00;;;;;;5034008;28;20031;-68
2021/01/02 01:23:41;;;;;;;37.45;24.25;;;-0.20;98.00;;;;;;5033132;28;20037;-69
2021/01/02 01:26:12;;;;;;;45.75;25.13;;;-0.20;98.00;;;;;;5033256;28;20036;-66
2021/01/02 01:28:39;;;;;;;45.95;26.42;;;-0.30;98.00;;;;;;5034564;28;20026;-67
2021/01/02 01:31:09;;;;;;;42.08;24.75;;;-0.20;98.00;;;;;;5034335;28;20017;-68
2021/01/02 01:33:40;;;;;;;50.45;27.92;;;-0.20;98.00;;;;;;5032968;28;20033;-68
2021/01/02 01:36:07;;;;;;;49.38;27.45;;;-0.30;98.00;;;;;;5034144;28;20017;-67
2021/01/02 01:38:33;;;;;;;51.17;25.33;;;-0.30;98.00;;;;;;5034783;28;20025;-68
2021/01/02 01:41:12;;;;;;;45.00;26.58;;;-0.30;98.00;;;;;;5032521;28;20088;-67
2021/01/02 01:44:09;;;;;;;48.80;26.48;;;-0.30;98.00;;;;;;5034584;28;20029;-67
2021/01/02 01:46:41;;;;;;;47.10;28.55;;;-0.30;98.00;;;;;;5027415;28;20041;-67
2021/01/02 01:49:09;;;;;;;43.47;27.00;;;-0.30;98.00;;;;;;5035065;28;20033;-69
2021/01/02 01:51:58;;;;;;;41.05;26.95;;;-0.30;98.00;;;;;;5034676;28;20140;-68
2021/01/02 01:55:04;;;;;;;49.17;27.05;;;-0.30;98.00;;;;;;5033344;28;20291;-68
2021/01/02 01:57:30;;;;;;;46.38;24.98;;;-0.30;98.00;;;;;;5034527;28;20318;-67
2021/01/02 01:59:58;;;;;;;39.20;25.58;;;-0.30;98.00;;;;;;5034938;28;20417;-68
2021/01/02 02:03:00;;;;;;;42.17;26.35;;;-0.40;98.00;;;;;;5033607;28;20041;-67
2021/01/02 02:05:33;;;;;;;57.03;27.00;;;-0.40;98.00;;;;;;5020118;28;20041;-68
2021/01/02 02:08:03;;;;;;;45.53;25.75;;;-0.40;98.00;;;;;;5034951;28;20299;-68
2021/01/02 02:10:47;;;;;;;42.05;26.50;;;-0.40;98.00;;;;;;5032365;28;20045;-67
2021/01/02 02:13:15;;;;;;;;;;;-0.50;98.00;;;;;;5034940;28;20025;-66
2021/01/02 02:15:47;;;;;;;40.50;24.20;;;-0.50;98.00;;;;;;5037448;28;19971;-66
2021/01/02 02:18:24;;;;;;;41.80;25.23;;;-0.50;98.00;;;;;;5038631;28;20322;-67
2021/01/02 02:20:54;;;;;;;41.78;24.58;;;-0.50;98.00;;;;;;5037504;28;20021;-69
2021/01/02 02:23:43;;;;;;;36.85;23.90;;;-0.50;98.00;;;;;;5037306;28;20037;-68
2021/01/02 02:26:18;;;;;;;36.92;23.75;;;-0.50;98.00;;;;;;5036868;28;20029;-68
2021/01/02 02:29:06;;;;;;;40.38;25.92;;;-0.50;98.00;;;;;;5038377;28;20325;-69
2021/01/02 02:31:33;;;;;;;40.33;23.80;;;-0.40;98.00;;;;;;5038075;28;20045;-68
2021/01/02 02:34:02;;;;;;;34.67;22.75;;;-0.40;98.00;;;;;;5038048;28;20403;-68
2021/01/02 02:36:31;;;;;;;37.63;23.75;;;-0.40;98.00;;;;;;5038285;28;20091;-68
2021/01/02 02:39:04;;;;;;;42.13;23.92;;;-0.40;98.00;;;;;;5038687;28;20037;-68
2021/01/02 02:41:34;;;;;;;37.33;23.63;;;-0.40;98.00;;;;;;5035798;28;20025;-67
2021/01/02 02:44:03;;;;;;;36.08;22.17;;;-0.40;98.00;;;;;;5038368;28;20121;-67
2021/01/02 02:46:33;;;;;;;41.42;24.23;;;-0.40;98.00;;;;;;5038308;28;20033;-68
2021/01/02 02:49:06;;;;;;;44.08;26.88;;;-0.40;98.00;;;;;;5038177;28;20092;-68
2021/01/02 02:51:43;;;;;;;36.63;23.35;;;-0.40;98.00;;;;;;5037800;28;20430;-68
2021/01/02 02:54:09;;;;;;;36.53;22.48;;;-0.50;98.00;;;;;;5037975;28;20060;-68
2021/01/02 02:56:35;;;;;;;35.55;22.05;;;-0.40;98.00;;;;;;5036821;28;20021;-68
2021/01/02 02:59:00;;;;;;;31.65;20.42;;;-0.40;98.00;;;;;;5036838;28;20052;-68
2021/01/02 03:01:28;;;;;;;38.03;20.02;;;-0.40;98.00;;;;;;5036891;28;20044;-68
2021/01/02 03:03:58;;;;;;;36.22;24.55;;;-0.40;98.00;;;;;;5037912;28;20055;-68
2021/01/02 03:06:24;;;;;;;32.63;21.02;;;-0.40;98.00;;;;;;5038118;28;20386;-68
2021/01/02 03:08:53;;;;;;;31.67;19.98;;;-0.40;98.00;;;;;;5037661;28;20029;-68
2021/01/02 03:11:26;;;;;;;35.90;23.27;;;-0.40;98.00;;;;;;5036415;28;20036;-68
2021/01/02 03:13:54;;;;;;;41.72;23.58;;;-0.40;98.00;;;;;;5038027;28;20026;-68
2021/01/02 03:16:21;;;;;;;29.40;19.02;;;-0.40;98.00;;;;;;5037473;28;20033;-68
2021/01/02 03:18:47;;;;;;;24.92;16.50;;;-0.40;98.00;;;;;;5037132;28;20032;-68
2021/01/02 03:21:13;;;;;;;24.55;16.92;;;-0.40;98.00;;;;;;5036078;28;20033;-68
2021/01/02 03:23:47;;;;;;;33.78;19.50;;;-0.30;98.00;;;;;;5037166;28;20061;-68
2021/01/02 03:26:13;;;;;;;33.60;20.88;;;-0.30;98.00;;;;;;5035771;28;20025;-67
2021/01/02 03:28:39;;;;;;;36.55;21.98;;;-0.30;98.00;;;;;;5035801;28;20045;-68
2021/01/02 03:31:05;;;;;;;36.50;22.33;;;-0.30;98.00;;;;;;5036808;28;20477;-68
2021/01/02 03:33:31;;;;;;;31.48;19.88;;;-0.40;98.00;;;;;;5037234;28;20033;-67
2021/01/02 03:36:01;;;;;;;36.83;21.98;;;-0.40;98.00;;;;;;5036984;28;20032;-68
2021/01/02 03:38:34;;;;;;;32.45;20.85;;;-0.40;98.00;;;;;;5018459;28;20022;-67
2021/01/02 03:41:00;;;;;;;27.67;16.50;;;-0.40;98.00;;;;;;5035721;28;20099;-67
2021/01/02 03:43:27;;;;;;;25.58;16.95;;;-0.40;98.00;;;;;;5036333;28;20034;-68
2021/01/02 03:45:53;;;;;;;27.98;18.65;;;-0.30;98.00;;;;;;5037131;28;20025;-67
2021/01/02 03:48:19;;;;;;;29.92;19.10;;;-0.30;98.00;;;;;;5037168;28;20017;-67
2021/01/02 03:50:44;;;;;;;29.92;18.10;;;-0.40;98.00;;;;;;5036694;28;20063;-67
2021/01/02 03:53:10;;;;;;;24.33;16.75;;;-0.40;98.00;;;;;;5037024;28;20075;-66
2021/01/02 03:55:36;;;;;;;26.45;15.95;;;-0.40;98.00;;;;;;5035582;28;20025;-67
2021/01/02 03:58:02;;;;;;;19.23;13.27;;;-0.40;98.00;;;;;;5037454;28;20021;-66
2021/01/02 04:00:28;;;;;;;26.30;16.52;;;-0.40;98.00;;;;;;5035750;28;20026;-66
2021/01/02 04:02:53;;;;;;;36.60;17.13;;;-0.30;98.00;;;;;;5036942;28;20033;-66
2021/01/02 04:05:19;;;;;;;26.70;18.13;;;-0.40;98.00;;;;;;5036439;28;20040;-66
2021/01/02 04:07:44;;;;;;;25.38;15.95;;;-0.30;98.00;;;;;;5036721;28;20025;-68
2021/01/02 04:10:10;;;;;;;23.27;14.40;;;-0.30;98.00;;;;;;5035232;28;20033;-66
2021/01/02 04:12:39;;;;;;;30.35;20.08;;;-0.30;98.00;;;;;;5035737;28;20021;-66
2021/01/02 04:15:06;;;;;;;23.23;15.50;;;-0.40;98.00;;;;;;5017009;28;20026;-66
2021/01/02 04:17:32;;;;;;;30.88;19.13;;;-0.40;98.00;;;;;;5017012;28;20076;-68
2021/01/02 04:20:00;;;;;;;23.92;15.20;;;-0.40;98.00;;;;;;5031292;28;20021;-67
2021/01/02 04:22:26;;;;;;;23.85;16.58;;;-0.40;98.00;;;;;;5035245;28;20099;-68
2021/01/02 04:24:51;;;;;;;23.95;14.88;;;-0.40;98.00;;;;;;5036380;28;20033;-68
2021/01/02 04:27:19;;;;;;;25.13;14.80;;;-0.40;98.00;;;;;;5033923;28;20496;-68
2021/01/02 04:29:45;;;;;;;25.83;16.15;;;-0.30;98.00;;;;;;5034142;28;20037;-67
2021/01/02 04:32:10;;;;;;;20.40;14.07;;;-0.30;98.00;;;;;;5036501;28;20365;-68
2021/01/02 04:34:36;;;;;;;19.42;12.98;;;-0.30;98.00;;;;;;5036299;28;20060;-66
2021/01/02 04:37:02;;;;;;;21.40;13.50;;;-0.30;98.00;;;;;;5035361;28;20312;-68
2021/01/02 04:39:27;;;;;;;20.40;13.23;;;-0.30;98.00;;;;;;5034913;28;20025;-66
2021/01/02 04:41:56;;;;;;;26.25;14.57;;;-0.30;98.00;;;;;;5033886;28;20129;-66
2021/01/02 04:44:22;;;;;;;23.73;13.15;;;-0.20;98.00;;;;;;5036074;28;20075;-66
2021/01/02 04:46:49;;;;;;;22.52;14.10;;;-0.30;98.00;;;;;;5036251;28;20036;-67
2021/01/02 04:49:15;;;;;;;18.27;13.32;;;-0.30;98.00;;;;;;5035600;28;20114;-68
2021/01/02 04:51:40;;;;;;;19.13;13.25;;;-0.30;98.00;;;;;;5035682;28;20457;-68
2021/01/02 04:54:06;;;;;;;21.85;14.25;;;-0.30;98.00;;;;;;5035874;28;20021;-68
2021/01/02 04:56:33;;;;;;;20.95;13.15;;;-0.20;98.00;;;;;;5034531;28;20112;-67
2021/01/02 04:59:08;;;;;;;17.90;11.82;;;-0.20;98.00;;;;;;5034823;28;20411;-68
2021/01/02 05:01:37;;;;;;;20.70;12.10;;;-0.20;98.00;;;;;;5031070;28;20140;-68
2021/01/02 05:04:02;;;;;;;17.27;11.15;;;-0.20;98.00;;;;;;5035531;28;20057;-66
2021/01/02 05:06:28;;;;;;;19.40;12.35;;;-0.20;98.00;;;;;;5035584;28;20064;-68
2021/01/02 05:08:54;;;;;;;25.88;14.45;;;-0.10;98.00;;;;;;5035403;28;20030;-68
2021/01/02 05:11:20;;;;;;;19.90;13.25;;;-0.20;98.00;;;;;;5034481;28;20040;-68
2021/01/02 05:13:46;;;;;;;19.30;12.25;;;-0.20;98.00;;;;;;5035415;28;20021;-68
2021/01/02 05:16:15;;;;;;;20.75;12.85;;;-0.10;98.00;;;;;;5035364;28;20079;-67
2021/01/02 05:19:13;;;;;;;15.65;11.25;;;-0.20;98.00;;;;;;5017457;28;20422;-68
2021/01/02 05:21:44;;;;;;;17.88;11.85;;;-0.20;98.00;;;;;;5017974;28;20041;-68
2021/01/02 05:24:10;;;;;;;18.58;12.60;;;-0.20;98.00;;;;;;5035154;28;20041;-68
2021/01/02 05:26:39;;;;;;;20.45;12.35;;;-0.10;98.00;;;;;;5034087;28;20025;-67
2021/01/02 05:29:12;;;;;;;19.17;11.90;;;-0.20;98.00;;;;;;5034497;28;20349;-68
2021/01/02 05:31:40;;;;;;;19.93;12.67;;;-0.20;98.00;;;;;;5034905;28;20036;-67
2021/01/02 05:34:07;;;;;;;17.92;11.30;;;-0.10;98.00;;;;;;5034900;28;20144;-68
2021/01/02 05:36:32;;;;;;;19.92;13.55;;;-0.20;98.00;;;;;;5034669;28;20111;-68
2021/01/02 05:38:59;;;;;;;19.65;12.18;;;-0.20;98.00;;;;;;5035001;28;20065;-67
2021/01/02 05:41:25;;;;;;;17.13;11.15;;;-0.20;98.00;;;;;;5033385;28;20056;-68
2021/01/02 05:43:51;;;;;;;18.52;12.10;;;-0.20;98.00;;;;;;5035264;28;20040;-68
2021/01/02 05:46:21;;;;;;;23.80;15.02;;;-0.20;98.00;;;;;;5035187;28;20033;-68
2021/01/02 05:48:47;;;;;;;21.63;14.77;;;-0.20;98.00;;;;;;5034361;28;20108;-67
2021/01/02 05:51:12;;;;;;;25.33;15.48;;;-0.30;98.00;;;;;;5034660;28;20502;-68
2021/01/02 05:53:38;;;;;;;19.38;13.57;;;-0.20;98.00;;;;;;5035140;28;20367;-66
2021/01/02 05:56:12;;;;;;;19.83;13.70;;;-0.20;98.00;;;;;;5033682;28;20049;-67
2021/01/02 05:58:42;;;;;;;25.70;16.38;;;-0.20;98.00;;;;;;5034943;28;20037;-67
2021/01/02 06:01:17;;;;;;;28.98;18.95;;;-0.20;98.00;;;;;;5031952;28;20041;-68
2021/01/02 06:03:45;;;;;;;27.45;18.45;;;-0.20;98.00;;;;;;5034184;28;20026;-67
2021/01/02 06:06:17;;;;;;;28.67;18.63;;;-0.20;98.00;;;;;;5033835;28;20632;-68
2021/01/02 06:08:50;;;;;;;32.85;17.48;;;-0.30;98.00;;;;;;5032355;28;20295;-67
2021/01/02 06:11:21;;;;;;;34.00;20.83;;;-0.30;98.00;;;;;;5033485;28;20033;-67
2021/01/02 06:13:51;;;;;;;29.40;19.13;;;-0.30;98.00;;;;;;5033624;28;20276;-67
2021/01/02 06:16:18;;;;;;;39.33;21.83;;;-0.30;98.00;;;;;;5028603;28;20029;-66
2021/01/02 06:18:46;;;;;;;37.63;22.48;;;-0.40;98.00;;;;;;5032446;28;20053;-67
2021/01/02 06:21:14;;;;;;;38.28;23.55;;;-0.40;98.00;;;;;;5033485;28;20060;-67
2021/01/02 06:23:42;;;;;;;30.55;19.33;;;-0.50;98.00;;;;;;5034298;28;20029;-67
2021/01/02 06:26:12;;;;;;;32.80;21.27;;;-0.50;98.00;;;;;;5032389;28;20037;-67
2021/01/02 06:28:42;;;;;;;26.80;18.00;;;-0.40;98.00;;;;;;5033587;28;20102;-66
2021/01/02 06:31:10;;;;;;;31.83;20.98;;;-0.40;98.00;;;;;;5033646;28;20026;-67
2021/01/02 06:33:36;;;;;;;32.95;20.10;;;-0.50;98.00;;;;;;5034772;28;20018;-67
2021/01/02 06:36:03;;;;;;;25.02;14.85;;;-0.50;98.00;;;;;;5034535;28;20026;-67
2021/01/02 06:38:29;;;;;;;24.20;15.25;;;-0.50;98.00;;;;;;5034811;28;20406;-68
2021/01/02 06:40:56;;;;;;;25.73;15.02;;;-0.40;98.00;;;;;;5033191;28;20102;-68
2021/01/02 06:43:25;;;;;;;22.08;15.00;;;-0.50;98.00;;;;;;5032369;28;20117;-67
2021/01/02 06:45:55;;;;;;;23.35;14.90;;;-0.40;98.00;;;;;;5034145;28;20128;-68
2021/01/02 06:48:24;;;;;;;20.25;13.25;;;-0.40;98.00;;;;;;5034456;28;20061;-68
2021/01/02 06:50:58;;;;;;;23.42;14.50;;;-0.40;98.00;;;;;;5034103;28;20338;-68
2021/01/02 06:53:23;;;;;;;23.17;14.38;;;-0.40;98.00;;;;;;5034042;28;20096;-66
2021/01/02 06:56:08;;;;;;;20.67;13.93;;;-0.30;98.00;;;;;;5032462;28;20101;-68
2021/01/02 06:58:38;;;;;;;19.30;13.48;;;-0.40;98.00;;;;;;5026027;28;20025;-66
2021/01/02 07:01:06;;;;;;;20.45;14.27;;;-0.30;98.00;;;;;;5035813;28;20317;-67
2021/01/02 07:03:44;;;;;;;19.38;13.48;;;-0.30;98.00;;;;;;5037657;28;20060;-68
2021/01/02 07:06:22;;;;;;;24.65;15.27;;;-0.30;98.00;;;;;;5037640;28;20103;-66
2021/01/02 07:08:54;;;;;;;25.70;17.25;;;-0.40;98.00;;;;;;5037927;28;20041;-67
2021/01/02 07:11:40;;;;;;;22.67;14.65;;;-0.30;98.00;;;;;;5034631;28;20033;-66
2021/01/02 07:14:08;;;;;;;23.48;15.32;;;-0.40;98.00;;;;;;5036846;28;20079;-68
2021/01/02 07:16:54;;;;;;;26.05;16.10;;;-0.40;98.00;;;;;;5037740;28;20053;-68
2021/01/02 07:19:26;;;;;;;22.42;15.35;;;-0.40;98.00;;;;;;5036224;28;21628;-67
2021/01/02 07:22:05;;;;;;;24.27;15.32;;;-0.40;98.00;;;;;;5037421;28;20034;-68
2021/01/02 07:24:40;;;;;;;22.45;15.32;;;-0.40;98.00;;;;;;5036362;28;20033;-66
2021/01/02 07:27:08;;;;;;;23.98;15.68;;;-0.40;98.00;;;;;;5036176;28;20101;-67
2021/01/02 07:29:36;;;;;;;20.50;14.50;;;-0.40;98.00;;;;;;5036790;28;20071;-66
2021/01/02 07:32:19;;;;;;;23.85;15.07;;;-0.50;98.00;;;;;;5033144;28;20052;-68
2021/01/02 07:34:52;;;;;;;23.88;14.93;;;-0.40;98.00;;;;;;5034550;28;20026;-67
2021/01/02 07:37:24;;;;;;;22.58;15.43;;;-0.40;98.00;;;;;;5035968;28;20021;-66
2021/01/02 07:39:54;;;;;;;22.92;15.20;;;-0.40;98.00;;;;;;5036914;28;20120;-66
2021/01/02 07:42:24;;;;;;;23.25;14.45;;;-0.40;98.00;;;;;;5036705;28;20029;-69
2021/01/02 07:45:19;;;;;;;21.05;14.20;;;-0.30;98.00;;;;;;5037369;28;20029;-69
2021/01/02 07:47:56;;;;;;;20.98;13.63;;;-0.20;98.00;;;;;;5034480;28;20072;-69
2021/01/02 07:50:24;;;;;;;18.60;13.35;;;-0.30;98.00;;;;;;5026177;28;20056;-68
2021/01/02 07:52:55;;;;;;;19.60;12.43;;;-0.30;98.00;;;;;;5038049;28;20087;-68
2021/01/02 07:55:24;;;;;;;19.58;13.32;;;-0.30;98.00;;;;;;5034826;28;20466;-68
2021/01/02 07:57:50;;;;;;;20.35;13.23;;;-0.20;98.00;;;;;;5027599;28;20025;-68
2021/01/02 08:00:18;;;;;;;22.10;14.43;;;-0.20;98.00;;;;;;5036184;28;20461;-68
2021/01/02 08:02:44;;;;;;;17.85;11.88;;;-0.20;98.00;;;;;;5034710;28;20415;-68
2021/01/02 08:05:11;;;;;;;25.65;13.85;;;-0.20;98.00;;;;;;5036727;28;20040;-67
2021/01/02 08:07:37;;;;;;;23.90;13.43;;;-0.20;98.00;;;;;;5036000;28;20061;-68
2021/01/02 08:10:08;;;;;;;19.67;11.35;;;-0.20;98.00;;;;;;5034413;28;20036;-68
2021/01/02 08:12:34;;;;;;;22.52;13.93;;;-0.20;98.00;;;;;;5036373;28;20425;-67
2021/01/02 08:15:00;;;;;;;19.42;12.57;;;-0.20;98.00;;;;;;5036457;28;20045;-67
2021/01/02 08:17:25;;;;;;;17.88;12.38;;;-0.20;98.00;;;;;;5034717;28;20025;-67
2021/01/02 08:19:51;;;;;;;18.55;12.18;;;-0.10;98.00;;;;;;5036398;28;20040;-67
2021/01/02 08:22:31;;;;;;;20.38;12.50;;;-0.10;98.00;;;;;;5036986;28;20034;-67
2021/01/02 08:24:59;;;;;;;17.02;10.93;;;-0.10;98.00;;;;;;5033883;28;20114;-67
2021/01/02 08:27:26;;;;;;;15.82;10.73;;;-0.10;98.00;;;;;;5035961;28;20033;-68
2021/01/02 08:29:54;;;;;;;18.23;11.30;;;-0.10;98.00;;;;;;5035044;28;20029;-68
2021/01/02 08:32:24;;;;;;;14.85;10.23;;;-0.10;98.00;;;;;;5035316;28;20076;-68
2021/01/02 08:34:50;;;;;;;17.45;11.20;;;-0.10;98.00;;;;;;5035892;28;20036;-68
2021/01/02 08:37:17;;;;;;;21.80;14.82;;;0.00;98.00;;;;;;5034350;28;20033;-66
2021/01/02 08:39:43;;;;;;;20.42;13.07;;;0.00;98.00;;;;;;5020491;28;20025;-68
2021/01/02 08:42:09;;;;;;;16.08;10.23;;;0.00;98.00;;;;;;5025303;28;20037;-67
2021/01/02 08:44:46;;;;;;;21.33;13.02;;;0.10;98.00;;;;;;5026047;28;20038;-68
2021/01/02 08:47:25;;;;;;;18.25;11.60;;;0.00;98.00;;;;;;5048467;28;20026;-68
2021/01/02 08:49:51;;;;;;;17.17;10.68;;;0.10;98.00;;;;;;5032988;28;20466;-67
2021/01/02 08:52:27;;;;;;;16.23;11.13;;;0.00;98.00;;;;;;5033465;28;20017;-68
2021/01/02 08:55:16;;;;;;;21.58;14.38;;;0.10;98.00;;;;;;5038310;28;20412;-67
2021/01/02 08:57:50;;;;;;;25.08;16.45;;;0.20;98.00;;;;;;5033626;28;20072;-68
2021/01/02 09:00:29;;;;;;;24.33;16.00;;;0.30;98.00;;;;;;5035346;28;20021;-67
2021/01/02 09:02:54;;;;;;;21.25;13.57;;;0.20;98.00;;;;;;5033449;28;20025;-66
2021/01/02 09:05:30;;;;;;;26.98;16.00;;;0.20;98.00;;;;;;5035756;28;20026;-65
2021/01/02 09:07:59;;;;;;;21.05;14.38;;;0.30;98.00;;;;;;5033521;28;20029;-67
2021/01/02 09:10:33;;;;;;;26.10;15.68;;;0.30;98.00;;;;;;5034185;28;20021;-67
2021/01/02 09:13:21;;;;;;;19.73;12.98;;;0.40;98.00;;;;;;5035481;28;20043;-67
2021/01/02 09:16:01;;;;;;;19.00;12.95;;;0.50;98.00;;;;;;5035200;28;20079;-68
2021/01/02 09:18:29;;;;;;;15.95;11.38;;;0.70;98.00;;;;;;5035198;28;20386;-67
2021/01/02 09:21:14;;;;;;;16.58;10.10;;;0.70;98.00;;;;;;5035191;28;20418;-67
2021/01/02 09:23:43;;;;;;;13.73;9.82;;;0.80;97.90;;;;;;5035255;28;20418;-67
2021/01/02 09:26:32;;;;;;;16.77;11.07;;;0.80;97.40;;;;;;5034201;28;20434;-68
2021/01/02 09:29:00;;;;;;;20.40;12.75;;;1.00;96.50;;;;;;5035362;28;20355;-67
2021/01/02 09:31:27;;;;;;;15.25;10.07;;;0.90;96.80;;;;;;5034681;28;20024;-68
2021/01/02 09:33:54;;;;;;;18.08;10.73;;;1.00;96.80;;;;;;5035447;28;20326;-68
2021/01/02 09:36:21;;;;;;;19.65;11.50;;;1.00;95.90;;;;;;5035218;28;20457;-68
2021/01/02 09:38:47;;;;;;;30.00;19.42;;;1.10;96.70;;;;;;5035231;28;20326;-69
2021/01/02 09:41:17;;;;;;;44.60;24.90;;;1.20;97.00;;;;;;5033387;28;20029;-68
2021/01/02 09:43:43;;;;;;;21.05;14.40;;;1.30;97.00;;;;;;5035075;28;20484;-67
2021/01/02 09:46:16;;;;;;;24.08;15.93;;;1.40;96.90;;;;;;5034994;28;20033;-67
2021/01/02 09:48:43;;;;;;;23.55;14.88;;;1.30;97.40;;;;;;5035301;28;20026;-70
2021/01/02 09:51:09;;;;;;;25.58;15.93;;;1.20;98.00;;;;;;5034713;28;20041;-68
2021/01/02 09:53:37;;;;;;;28.20;17.17;;;1.30;98.00;;;;;;5034045;28;20136;-69
2021/01/02 09:56:03;;;;;;;23.42;15.30;;;1.20;98.00;;;;;;5033782;28;20066;-69
2021/01/02 09:58:29;;;;;;;14.77;10.77;;;1.10;98.00;;;;;;5034889;28;20053;-67
2021/01/02 10:00:54;;;;;;;22.95;15.32;;;1.10;98.00;;;;;;5034524;28;20087;-67
2021/01/02 10:03:23;;;;;;;23.60;15.60;;;1.00;97.90;;;;;;5034193;28;20489;-68
2021/01/02 10:05:48;;;;;;;25.13;16.92;;;0.80;98.00;;;;;;5034785;28;20096;-69
2021/01/02 10:08:14;;;;;;;28.48;18.00;;;0.80;98.00;;;;;;5034781;28;20159;-69
2021/01/02 10:10:40;;;;;;;24.55;16.67;;;0.70;98.00;;;;;;5033415;28;20449;-70
2021/01/02 10:13:05;;;;;;;24.08;15.68;;;0.80;98.00;;;;;;5034763;28;20026;-68
2021/01/02 10:15:31;;;;;;;27.70;16.83;;;0.80;98.00;;;;;;5034455;28;20037;-68
2021/01/02 10:17:57;;;;;;;24.02;16.38;;;0.80;98.00;;;;;;5034566;28;20544;-69
2021/01/02 10:20:29;;;;;;;27.88;17.58;;;0.80;98.00;;;;;;5034990;28;20314;-68
2021/01/02 10:22:54;;;;;;;25.30;16.55;;;0.90;98.00;;;;;;5034693;28;20091;-68
2021/01/02 10:25:20;;;;;;;21.60;15.30;;;1.00;98.00;;;;;;5033168;28;20067;-67
2021/01/02 10:27:46;;;;;;;32.45;19.27;;;0.90;98.00;;;;;;5034704;28;20476;-68
2021/01/02 10:30:13;;;;;;;29.90;19.33;;;0.70;98.00;;;;;;5034337;28;20028;-67
2021/01/02 10:32:39;;;;;;;23.48;16.48;;;0.60;98.00;;;;;;5034880;28;20107;-67
2021/01/02 10:35:06;;;;;;;25.58;17.23;;;0.60;98.00;;;;;;5035032;28;20065;-68
2021/01/02 10:37:32;;;;;;;27.27;17.95;;;0.70;98.00;;;;;;5038113;28;20028;-70
2021/01/02 10:39:58;;;;;;;31.05;18.70;;;0.80;98.00;;;;;;5037285;28;20409;-70
2021/01/02 10:42:28;;;;;;;27.83;17.55;;;0.60;98.00;;;;;;5038472;28;20104;-70
2021/01/02 10:44:53;;;;;;;25.45;18.23;;;0.50;98.00;;;;;;5038397;28;20053;-69
2021/01/02 10:47:27;;;;;;;26.98;17.65;;;0.70;98.00;;;;;;5037996;28;20060;-69
2021/01/02 10:49:53;;;;;;;27.90;17.77;;;0.80;98.00;;;;;;5037874;28;20113;-69
2021/01/02 10:52:21;;;;;;;26.23;18.88;;;0.70;98.00;;;;;;5035332;28;20030;-69
2021/01/02 10:54:56;;;;;;;24.98;16.20;;;0.70;98.00;;;;;;5039886;28;20018;-70
2021/01/02 10:57:29;;;;;;;26.20;17.58;;;0.70;98.00;;;;;;5037962;28;20028;-69
2021/01/02 10:59:55;;;;;;;17.45;13.35;;;0.80;98.00;;;;;;5037544;28;20044;-69
2021/01/02 11:02:22;;;;;;;24.42;15.52;;;0.80;98.00;;;;;;5038109;28;20414;-70
2021/01/02 11:04:48;;;;;;;23.15;15.68;;;0.70;98.00;;;;;;5037950;28;20389;-70
2021/01/02 11:07:14;;;;;;;23.33;16.13;;;0.80;98.00;;;;;;5036795;28;20108;-69
2021/01/02 11:09:42;;;;;;;25.38;16.40;;;0.90;98.00;;;;;;5037756;28;20315;-69
2021/01/02 11:12:08;;;;;;;24.42;16.35;;;1.00;98.00;;;;;;5036919;28;20363;-69
2021/01/02 11:14:39;;;;;;;25.05;15.93;;;1.00;98.00;;;;;;5037767;28;20033;-69
2021/01/02 11:17:06;;;;;;;23.17;14.98;;;0.80;98.00;;;;;;5037432;28;20025;-69
2021/01/02 11:19:35;;;;;;;26.13;15.73;;;0.70;98.00;;;;;;5037837;28;20495;-70
2021/01/02 11:22:04;;;;;;;23.70;16.95;;;0.70;98.00;;;;;;5036871;28;20380;-69
2021/01/02 11:24:32;;;;;;;26.98;18.63;;;0.70;98.00;;;;;;5037430;28;20036;-70
2021/01/02 11:27:00;;;;;;;30.40;17.55;;;0.90;98.00;;;;;;5036408;28;20326;-69
2021/01/02 11:29:29;;;;;;;26.52;16.13;;;0.90;98.00;;;;;;5037086;28;20121;-68
2021/01/02 11:31:56;;;;;;;23.35;15.15;;;0.90;98.00;;;;;;5037395;28;20021;-70
2021/01/02 11:34:24;;;;;;;24.63;16.63;;;1.00;98.00;;;;;;5037387;28;20018;-67
2021/01/02 11:36:58;;;;;;;24.55;15.65;;;0.80;98.00;;;;;;5036602;28;20029;-69
2021/01/02 11:39:25;;;;;;;23.95;14.82;;;0.80;98.00;;;;;;5037686;28;20026;-68
2021/01/02 11:41:51;;;;;;;22.38;15.05;;;0.80;98.00;;;;;;5036191;28;20025;-69
2021/01/02 11:44:20;;;;;;;22.13;14.43;;;0.90;98.00;;;;;;5037269;28;20659;-70
2021/01/02 11:46:48;;;;;;;23.23;15.60;;;1.00;98.00;;;;;;5036202;28;20029;-69
2021/01/02 11:49:19;;;;;;;24.00;14.98;;;0.90;98.00;;;;;;5036828;28;20042;-68
2021/01/02 11:51:49;;;;;;;20.35;14.27;;;0.80;98.00;;;;;;5037031;28;20038;-69
2021/01/02 11:54:15;;;;;;;22.20;13.82;;;0.90;98.00;;;;;;5036285;28;20036;-70
2021/01/02 11:56:41;;;;;;;22.58;14.63;;;0.90;98.00;;;;;;5034584;28;20314;-69
2021/01/02 11:59:07;;;;;;;23.58;14.35;;;1.10;98.00;;;;;;5037190;28;20401;-69
2021/01/02 12:01:37;;;;;;;19.85;14.18;;;1.10;98.00;;;;;;5036650;28;20108;-69
2021/01/02 12:04:04;;;;;;;41.33;27.95;;;1.00;98.00;;;;;;5037065;28;20318;-69
2021/01/02 12:06:31;;;;;;;23.95;16.05;;;0.90;98.00;;;;;;5035611;28;20436;-69
2021/01/02 12:08:58;;;;;;;23.17;15.23;;;0.90;98.00;;;;;;5037043;28;20033;-67
2021/01/02 12:11:34;;;;;;;17.77;13.18;;;1.00;98.00;;;;;;5035152;28;20414;-69
2021/01/02 12:14:00;;;;;;;30.52;16.75;;;1.10;98.00;;;;;;5036778;28;20330;-69
2021/01/02 12:16:36;;;;;;;21.13;14.68;;;1.10;98.00;;;;;;5035443;28;20036;-69
2021/01/02 12:19:03;;;;;;;18.92;13.95;;;1.00;98.00;;;;;;5036171;28;20075;-69
2021/01/02 12:21:29;;;;;;;20.88;14.68;;;0.80;98.00;;;;;;5036451;28;20342;-67
2021/01/02 12:23:55;;;;;;;21.88;15.20;;;0.70;98.00;;;;;;5036745;28;20060;-69
2021/01/02 12:26:21;;;;;;;25.38;16.27;;;0.70;98.00;;;;;;5035284;28;20056;-68
2021/01/02 12:28:48;;;;;;;31.50;21.67;;;0.60;98.00;;;;;;5020031;28;20057;-69
2021/01/02 12:31:23;;;;;;;27.02;18.08;;;0.50;98.00;;;;;;5035813;28;20033;-69
2021/01/02 12:33:49;;;;;;;28.63;18.48;;;0.60;98.00;;;;;;5033012;28;20029;-68
2021/01/02 12:36:18;;;;;;;30.52;18.13;;;0.50;98.00;;;;;;5034934;28;20434;-69
2021/01/02 12:38:44;;;;;;;28.10;18.80;;;0.50;98.00;;;;;;5033535;28;20104;-69
2021/01/02 12:41:17;;;;;;;24.73;16.83;;;0.50;98.00;;;;;;5034823;28;20034;-67
2021/01/02 12:43:43;;;;;;;23.42;15.68;;;0.40;98.00;;;;;;5030021;28;20060;-67
2021/01/02 12:46:11;;;;;;;25.88;16.98;;;0.40;98.00;;;;;;5036398;28;20037;-69